sensor_id;sensor_type;location;lat;lon;timestamp;pressure;altitude;pressure_sealevel;temperature;humidity
57885;BME280;43703;51.060;-0.086;2024-01-10T00:02:12;101386.82;;;-0.35;86.33
57885;BME280;43703;51.060;-0.086;2024-01-10T00:04:37;101386.11;;;-0.46;85.84
57885;BME280;43703;51.060;-0.086;2024-01-10T00:07:02;101392.26;;;-0.33;90.32
57885;BME280;43703;51.060;-0.086;2024-01-10T00:09:27;101387.87;;;-0.47;93.82
57885;BME280;43703;51.060;-0.086;2024-01-10T00:11:53;101388.19;;;-0.82;92.17
57885;BME280;43703;51.060;-0.086;2024-01-10T00:14:18;101387.59;;;-0.31;97.96
57885;BME280;43703;51.060;-0.086;2024-01-10T00:16:43;101390.55;;;-0.26;92.46
57885;BME280;43703;51.060;-0.086;2024-01-10T00:19:08;101386.98;;;-0.47;86.86
57885;BME280;43703;51.060;-0.086;2024-01-10T00:21:34;101393.58;;;-0.39;82.47
57885;BME280;43703;51.060;-0.086;2024-01-10T00:23:59;101389.89;;;-0.30;91.15
57885;BME280;43703;51.060;-0.086;2024-01-10T00:26:24;101390.44;;;-0.29;97.27
57885;BME280;43703;51.060;-0.086;2024-01-10T00:28:50;101393.63;;;-0.43;90.72
57885;BME280;43703;51.060;-0.086;2024-01-10T00:31:16;101387.92;;;-0.50;87.91
57885;BME280;43703;51.060;-0.086;2024-01-10T00:33:43;101384.79;;;-0.30;90.56
57885;BME280;43703;51.060;-0.086;2024-01-10T00:36:06;101388.47;;;-0.41;88.02
57885;BME280;43703;51.060;-0.086;2024-01-10T00:38:31;101387.14;;;-0.20;89.73
57885;BME280;43703;51.060;-0.086;2024-01-10T00:40:56;101390.34;;;-0.58;89.68
57885;BME280;43703;51.060;-0.086;2024-01-10T00:43:22;101389.89;;;-0.72;88.03
57885;BME280;43703;51.060;-0.086;2024-01-10T00:45:47;101384.52;;;-0.58;90.45
57885;BME280;43703;51.060;-0.086;2024-01-10T00:48:14;101386.77;;;-0.39;91.86
57885;BME280;43703;51.060;-0.086;2024-01-10T00:50:38;101382.98;;;-0.35;90.92
57885;BME280;43703;51.060;-0.086;2024-01-10T00:53:03;101376.72;;;-0.55;86.94
57885;BME280;43703;51.060;-0.086;2024-01-10T00:55:28;101383.31;;;-0.62;87.90
57885;BME280;43703;51.060;-0.086;2024-01-10T00:57:55;101378.37;;;-0.47;96.09
57885;BME280;43703;51.060;-0.086;2024-01-10T01:00:18;101382.98;;;-0.68;91.10
57885;BME280;43703;51.060;-0.086;2024-01-10T01:02:43;101382.20;;;-0.86;84.89
57885;BME280;43703;51.060;-0.086;2024-01-10T01:05:09;101375.30;;;-0.63;89.83
57885;BME280;43703;51.060;-0.086;2024-01-10T01:07:34;101376.60;;;-0.97;82.13
57885;BME280;43703;51.060;-0.086;2024-01-10T01:09:59;101371.45;;;-0.83;94.95
57885;BME280;43703;51.060;-0.086;2024-01-10T01:12:24;101375.89;;;-0.84;94.59
57885;BME280;43703;51.060;-0.086;2024-01-10T01:14:50;101371.51;;;-0.68;89.54
57885;BME280;43703;51.060;-0.086;2024-01-10T01:17:15;101371.67;;;-0.72;87.64
57885;BME280;43703;51.060;-0.086;2024-01-10T01:19:41;101370.57;;;-0.72;88.38
57885;BME280;43703;51.060;-0.086;2024-01-10T01:22:05;101369.26;;;-0.75;89.73
57885;BME280;43703;51.060;-0.086;2024-01-10T01:24:30;101367.67;;;-0.62;86.01
57885;BME280;43703;51.060;-0.086;2024-01-10T01:26:55;101364.97;;;-0.50;86.24
57885;BME280;43703;51.060;-0.086;2024-01-10T01:29:23;101371.84;;;-0.54;91.32
57885;BME280;43703;51.060;-0.086;2024-01-10T01:31:47;101369.92;;;-0.55;91.73
57885;BME280;43703;51.060;-0.086;2024-01-10T01:34:12;101367.50;;;-0.76;89.60
57885;BME280;43703;51.060;-0.086;2024-01-10T01:36:38;101367.34;;;-0.76;83.02
57885;BME280;43703;51.060;-0.086;2024-01-10T01:39:03;101365.36;;;-0.74;96.35
57885;BME280;43703;51.060;-0.086;2024-01-10T01:41:28;101369.47;;;-0.72;81.99
57885;BME280;43703;51.060;-0.086;2024-01-10T01:43:53;101361.51;;;-0.90;93.24
57885;BME280;43703;51.060;-0.086;2024-01-10T01:46:18;101358.66;;;-0.78;95.31
57885;BME280;43703;51.060;-0.086;2024-01-10T01:48:44;101357.46;;;-0.73;100.00
57885;BME280;43703;51.060;-0.086;2024-01-10T01:51:11;101355.70;;;-0.61;98.22
57885;BME280;43703;51.060;-0.086;2024-01-10T01:53:36;101356.68;;;-0.47;99.88
57885;BME280;43703;51.060;-0.086;2024-01-10T01:56:04;101352.30;;;-1.01;93.67
57885;BME280;43703;51.060;-0.086;2024-01-10T01:58:26;101355.42;;;-0.59;94.57
57885;BME280;43703;51.060;-0.086;2024-01-10T02:00:51;101352.24;;;-0.76;88.69
57885;BME280;43703;51.060;-0.086;2024-01-10T02:03:16;101353.56;;;-0.62;94.73
57885;BME280;43703;51.060;-0.086;2024-01-10T02:05:41;101357.13;;;-0.68;95.52
57885;BME280;43703;51.060;-0.086;2024-01-10T02:08:08;101355.26;;;-0.63;94.93
57885;BME280;43703;51.060;-0.086;2024-01-10T02:10:32;101354.93;;;-0.78;90.40
57885;BME280;43703;51.060;-0.086;2024-01-10T02:13:00;101355.04;;;-0.75;100.00
57885;BME280;43703;51.060;-0.086;2024-01-10T02:15:24;101355.64;;;-0.71;100.00
57885;BME280;43703;51.060;-0.086;2024-01-10T02:17:49;101359.71;;;-0.78;100.00
57885;BME280;43703;51.060;-0.086;2024-01-10T02:20:15;101358.39;;;-0.80;95.28
57885;BME280;43703;51.060;-0.086;2024-01-10T02:22:39;101359.37;;;-0.88;100.00
57885;BME280;43703;51.060;-0.086;2024-01-10T02:25:05;101357.51;;;-0.65;100.00
57885;BME280;43703;51.060;-0.086;2024-01-10T02:27:30;101356.36;;;-0.70;100.00
57885;BME280;43703;51.060;-0.086;2024-01-10T02:29:56;101353.12;;;-0.68;100.00
57885;BME280;43703;51.060;-0.086;2024-01-10T02:32:20;101351.03;;;-0.77;100.00
57885;BME280;43703;51.060;-0.086;2024-01-10T02:34:45;101351.31;;;-0.91;100.00
57885;BME280;43703;51.060;-0.086;2024-01-10T02:37:11;101353.66;;;-1.06;100.00
57885;BME280;43703;51.060;-0.086;2024-01-10T02:39:36;101352.51;;;-1.00;99.53
57885;BME280;43703;51.060;-0.086;2024-01-10T02:42:01;101350.59;;;-0.63;99.17
57885;BME280;43703;51.060;-0.086;2024-01-10T02:44:27;101349.99;;;-0.92;97.60
57885;BME280;43703;51.060;-0.086;2024-01-10T02:46:52;101346.75;;;-0.94;96.36
57885;BME280;43703;51.060;-0.086;2024-01-10T02:49:17;101343.62;;;-1.03;100.00
57885;BME280;43703;51.060;-0.086;2024-01-10T02:51:42;101339.23;;;-0.85;100.00
57885;BME280;43703;51.060;-0.086;2024-01-10T02:54:08;101339.72;;;-1.02;100.00
57885;BME280;43703;51.060;-0.086;2024-01-10T02:56:33;101333.36;;;-0.74;100.00
57885;BME280;43703;51.060;-0.086;2024-01-10T02:58:59;101333.69;;;-0.79;100.00
57885;BME280;43703;51.060;-0.086;2024-01-10T03:01:24;101333.30;;;-0.77;100.00
57885;BME280;43703;51.060;-0.086;2024-01-10T03:03:50;101328.58;;;-0.97;100.00
57885;BME280;43703;51.060;-0.086;2024-01-10T03:06:15;101330.61;;;-1.03;100.00
57885;BME280;43703;51.060;-0.086;2024-01-10T03:08:40;101328.14;;;-1.05;100.00
57885;BME280;43703;51.060;-0.086;2024-01-10T03:11:06;101330.50;;;-1.19;100.00
57885;BME280;43703;51.060;-0.086;2024-01-10T03:13:31;101327.81;;;-1.13;100.00
57885;BME280;43703;51.060;-0.086;2024-01-10T03:15:57;101327.70;;;-0.95;100.00
57885;BME280;43703;51.060;-0.086;2024-01-10T03:18:23;101324.46;;;-1.19;100.00
57885;BME280;43703;51.060;-0.086;2024-01-10T03:20:49;101326.43;;;-1.29;100.00
57885;BME280;43703;51.060;-0.086;2024-01-10T03:23:12;101325.06;;;-1.24;100.00
57885;BME280;43703;51.060;-0.086;2024-01-10T03:25:38;101328.40;;;-1.13;100.00
57885;BME280;43703;51.060;-0.086;2024-01-10T03:28:03;101321.28;;;-1.01;100.00
57885;BME280;43703;51.060;-0.086;2024-01-10T03:30:28;101322.49;;;-1.20;100.00
57885;BME280;43703;51.060;-0.086;2024-01-10T03:32:54;101316.12;;;-1.19;100.00
57885;BME280;43703;51.060;-0.086;2024-01-10T03:35:20;101314.79;;;-1.42;100.00
57885;BME280;43703;51.060;-0.086;2024-01-10T03:37:45;101311.88;;;-1.20;100.00
57885;BME280;43703;51.060;-0.086;2024-01-10T03:40:11;101307.82;;;-1.19;100.00
57885;BME280;43703;51.060;-0.086;2024-01-10T03:42:36;101307.44;;;-1.39;100.00
57885;BME280;43703;51.060;-0.086;2024-01-10T03:45:05;101300.91;;;-1.28;100.00
57885;BME280;43703;51.060;-0.086;2024-01-10T03:47:26;101302.23;;;-1.22;100.00
57885;BME280;43703;51.060;-0.086;2024-01-10T03:49:52;101296.80;;;-1.13;100.00
57885;BME280;43703;51.060;-0.086;2024-01-10T03:52:17;101297.84;;;-1.44;100.00
57885;BME280;43703;51.060;-0.086;2024-01-10T03:54:42;101299.32;;;-1.40;100.00
57885;BME280;43703;51.060;-0.086;2024-01-10T03:57:08;101298.17;;;-1.20;100.00
57885;BME280;43703;51.060;-0.086;2024-01-10T03:59:33;101296.63;;;-1.47;100.00
57885;BME280;43703;51.060;-0.086;2024-01-10T04:01:58;101297.99;;;-1.36;100.00
57885;BME280;43703;51.060;-0.086;2024-01-10T04:04:23;101297.93;;;-1.14;100.00
57885;BME280;43703;51.060;-0.086;2024-01-10T04:06:48;101297.86;;;-1.52;100.00
57885;BME280;43703;51.060;-0.086;2024-01-10T04:09:14;101300.34;;;-1.64;100.00
57885;BME280;43703;51.060;-0.086;2024-01-10T04:11:40;101305.11;;;-1.43;100.00
57885;BME280;43703;51.060;-0.086;2024-01-10T04:14:04;101304.93;;;-1.54;100.00
57885;BME280;43703;51.060;-0.086;2024-01-10T04:16:30;101299.34;;;-1.28;100.00
57885;BME280;43703;51.060;-0.086;2024-01-10T04:18:56;101301.43;;;-1.72;100.00
57885;BME280;43703;51.060;-0.086;2024-01-10T04:21:21;101302.54;;;-1.39;100.00
57885;BME280;43703;51.060;-0.086;2024-01-10T04:23:46;101297.25;;;-1.60;100.00
57885;BME280;43703;51.060;-0.086;2024-01-10T04:26:11;101297.03;;;-1.58;100.00
57885;BME280;43703;51.060;-0.086;2024-01-10T04:28:36;101296.22;;;-1.53;100.00
57885;BME280;43703;51.060;-0.086;2024-01-10T04:31:04;101297.53;;;-1.28;100.00
57885;BME280;43703;51.060;-0.086;2024-01-10T04:33:29;101295.82;;;-1.36;100.00
57885;BME280;43703;51.060;-0.086;2024-01-10T04:35:54;101296.95;;;-1.75;100.00
57885;BME280;43703;51.060;-0.086;2024-01-10T04:38:21;101294.97;;;-1.53;100.00
57885;BME280;43703;51.060;-0.086;2024-01-10T04:40:48;101295.74;;;-1.52;100.00
57885;BME280;43703;51.060;-0.086;2024-01-10T04:43:11;101291.72;;;-1.61;100.00
57885;BME280;43703;51.060;-0.086;2024-01-10T04:45:37;101294.64;;;-1.51;100.00
57885;BME280;43703;51.060;-0.086;2024-01-10T04:48:06;101287.63;;;-1.74;100.00
57885;BME280;43703;51.060;-0.086;2024-01-10T04:50:25;101290.19;;;-1.54;100.00
57885;BME280;43703;51.060;-0.086;2024-01-10T04:52:50;101289.36;;;-1.75;100.00
57885;BME280;43703;51.060;-0.086;2024-01-10T04:55:15;101293.91;;;-1.54;100.00
57885;BME280;43703;51.060;-0.086;2024-01-10T04:57:42;101293.65;;;-1.42;100.00
57885;BME280;43703;51.060;-0.086;2024-01-10T05:00:07;101297.15;;;-1.27;100.00
57885;BME280;43703;51.060;-0.086;2024-01-10T05:02:31;101295.78;;;-1.54;100.00
57885;BME280;43703;51.060;-0.086;2024-01-10T05:04:57;101300.98;;;-1.58;100.00
57885;BME280;43703;51.060;-0.086;2024-01-10T05:07:22;101302.30;;;-1.57;100.00
57885;BME280;43703;51.060;-0.086;2024-01-10T05:09:47;101301.03;;;-1.58;100.00
57885;BME280;43703;51.060;-0.086;2024-01-10T05:12:12;101297.31;;;-1.56;100.00
57885;BME280;43703;51.060;-0.086;2024-01-10T05:14:39;101300.66;;;-1.72;100.00
57885;BME280;43703;51.060;-0.086;2024-01-10T05:17:04;101304.82;;;-1.54;100.00
57885;BME280;43703;51.060;-0.086;2024-01-10T05:19:29;101298.84;;;-1.81;100.00
57885;BME280;43703;51.060;-0.086;2024-01-10T05:21:54;101303.02;;;-1.51;100.00
57885;BME280;43703;51.060;-0.086;2024-01-10T05:24:19;101296.88;;;-1.21;100.00
57885;BME280;43703;51.060;-0.086;2024-01-10T05:26:45;101294.91;;;-1.42;100.00
57885;BME280;43703;51.060;-0.086;2024-01-10T05:29:10;101292.07;;;-1.33;100.00
57885;BME280;43703;51.060;-0.086;2024-01-10T05:31:35;101288.88;;;-1.46;100.00
57885;BME280;43703;51.060;-0.086;2024-01-10T05:34:00;101288.49;;;-1.48;100.00
57885;BME280;43703;51.060;-0.086;2024-01-10T05:36:26;101286.47;;;-1.40;100.00
57885;BME280;43703;51.060;-0.086;2024-01-10T05:38:52;101291.45;;;-1.52;100.00
57885;BME280;43703;51.060;-0.086;2024-01-10T05:41:17;101289.69;;;-1.74;100.00
57885;BME280;43703;51.060;-0.086;2024-01-10T05:43:43;101288.05;;;-1.53;100.00
57885;BME280;43703;51.060;-0.086;2024-01-10T05:46:08;101285.37;;;-1.17;100.00
57885;BME280;43703;51.060;-0.086;2024-01-10T05:48:33;101286.13;;;-1.29;100.00
57885;BME280;43703;51.060;-0.086;2024-01-10T05:50:58;101284.54;;;-1.53;100.00
57885;BME280;43703;51.060;-0.086;2024-01-10T05:53:24;101285.03;;;-1.51;100.00
57885;BME280;43703;51.060;-0.086;2024-01-10T05:55:49;101283.28;;;-1.49;100.00
57885;BME280;43703;51.060;-0.086;2024-01-10T05:58:15;101282.41;;;-1.45;100.00
57885;BME280;43703;51.060;-0.086;2024-01-10T06:00:40;101287.34;;;-1.50;100.00
57885;BME280;43703;51.060;-0.086;2024-01-10T06:03:05;101287.40;;;-1.40;100.00
57885;BME280;43703;51.060;-0.086;2024-01-10T06:05:30;101293.27;;;-1.41;100.00
57885;BME280;43703;51.060;-0.086;2024-01-10T06:07:55;101287.62;;;-1.46;100.00
57885;BME280;43703;51.060;-0.086;2024-01-10T06:10:23;101291.58;;;-1.57;100.00
57885;BME280;43703;51.060;-0.086;2024-01-10T06:12:46;101291.90;;;-1.45;100.00
57885;BME280;43703;51.060;-0.086;2024-01-10T06:15:11;101293.38;;;-1.41;100.00
57885;BME280;43703;51.060;-0.086;2024-01-10T06:17:36;101295.01;;;-1.50;100.00
57885;BME280;43703;51.060;-0.086;2024-01-10T06:20:01;101291.41;;;-1.37;100.00
57885;BME280;43703;51.060;-0.086;2024-01-10T06:22:26;101294.62;;;-1.54;100.00
57885;BME280;43703;51.060;-0.086;2024-01-10T06:24:52;101296.65;;;-1.56;100.00
57885;BME280;43703;51.060;-0.086;2024-01-10T06:27:17;101296.06;;;-1.49;100.00
57885;BME280;43703;51.060;-0.086;2024-01-10T06:29:42;101297.09;;;-1.54;100.00
57885;BME280;43703;51.060;-0.086;2024-01-10T06:32:07;101301.26;;;-1.25;100.00
57885;BME280;43703;51.060;-0.086;2024-01-10T06:34:32;101303.02;;;-1.24;100.00
57885;BME280;43703;51.060;-0.086;2024-01-10T06:36:58;101304.12;;;-1.49;100.00
57885;BME280;43703;51.060;-0.086;2024-01-10T06:39:24;101306.69;;;-1.28;100.00
57885;BME280;43703;51.060;-0.086;2024-01-10T06:41:49;101304.71;;;-1.56;100.00
57885;BME280;43703;51.060;-0.086;2024-01-10T06:44:15;101306.68;;;-1.59;100.00
57885;BME280;43703;51.060;-0.086;2024-01-10T06:46:40;101307.28;;;-1.60;100.00
57885;BME280;43703;51.060;-0.086;2024-01-10T06:49:05;101310.08;;;-1.33;100.00
57885;BME280;43703;51.060;-0.086;2024-01-10T06:51:31;101309.51;;;-1.94;100.00
57885;BME280;43703;51.060;-0.086;2024-01-10T06:53:55;101309.34;;;-1.47;100.00
57885;BME280;43703;51.060;-0.086;2024-01-10T06:56:20;101313.70;;;-1.60;100.00
57885;BME280;43703;51.060;-0.086;2024-01-10T06:58:46;101313.02;;;-1.68;100.00
57885;BME280;43703;51.060;-0.086;2024-01-10T07:01:12;101315.64;;;-1.74;100.00
57885;BME280;43703;51.060;-0.086;2024-01-10T07:03:37;101315.58;;;-2.02;100.00
57885;BME280;43703;51.060;-0.086;2024-01-10T07:06:03;101317.67;;;-1.71;100.00
57885;BME280;43703;51.060;-0.086;2024-01-10T07:08:29;101317.16;;;-1.29;100.00
57885;BME280;43703;51.060;-0.086;2024-01-10T07:10:53;101315.14;;;-1.75;100.00
57885;BME280;43703;51.060;-0.086;2024-01-10T07:13:19;101310.28;;;-1.97;100.00
57885;BME280;43703;51.060;-0.086;2024-01-10T07:15:45;101314.61;;;-1.69;100.00
57885;BME280;43703;51.060;-0.086;2024-01-10T07:18:10;101318.69;;;-1.57;100.00
57885;BME280;43703;51.060;-0.086;2024-01-10T07:20:36;101320.43;;;-1.65;100.00
57885;BME280;43703;51.060;-0.086;2024-01-10T07:23:02;101321.00;;;-1.81;100.00
57885;BME280;43703;51.060;-0.086;2024-01-10T07:25:27;101322.22;;;-1.75;100.00
57885;BME280;43703;51.060;-0.086;2024-01-10T07:27:52;101322.12;;;-1.72;100.00
57885;BME280;43703;51.060;-0.086;2024-01-10T07:30:17;101326.30;;;-1.34;100.00
57885;BME280;43703;51.060;-0.086;2024-01-10T07:32:43;101325.95;;;-1.63;100.00
57885;BME280;43703;51.060;-0.086;2024-01-10T07:35:09;101327.12;;;-1.28;100.00
57885;BME280;43703;51.060;-0.086;2024-01-10T07:37:33;101328.07;;;-1.10;100.00
57885;BME280;43703;51.060;-0.086;2024-01-10T07:39:59;101326.93;;;-0.96;100.00
57885;BME280;43703;51.060;-0.086;2024-01-10T07:42:25;101326.99;;;-0.98;100.00
57885;BME280;43703;51.060;-0.086;2024-01-10T07:44:50;101328.04;;;-0.90;100.00
57885;BME280;43703;51.060;-0.086;2024-01-10T07:47:15;101330.56;;;-0.78;100.00
57885;BME280;43703;51.060;-0.086;2024-01-10T07:49:40;101330.89;;;-0.64;100.00
57885;BME280;43703;51.060;-0.086;2024-01-10T07:52:06;101331.32;;;-0.54;100.00
57885;BME280;43703;51.060;-0.086;2024-01-10T07:54:31;101332.91;;;-0.34;100.00
57885;BME280;43703;51.060;-0.086;2024-01-10T07:56:56;101333.68;;;-0.63;100.00
57885;BME280;43703;51.060;-0.086;2024-01-10T07:59:21;101334.13;;;-0.72;100.00
57885;BME280;43703;51.060;-0.086;2024-01-10T08:01:55;101334.46;;;-0.84;100.00
57885;BME280;43703;51.060;-0.086;2024-01-10T08:04:12;101333.91;;;-0.74;100.00
57885;BME280;43703;51.060;-0.086;2024-01-10T08:06:38;101326.77;;;-1.00;100.00
57885;BME280;43703;51.060;-0.086;2024-01-10T08:09:03;101329.90;;;-1.12;100.00
57885;BME280;43703;51.060;-0.086;2024-01-10T08:11:28;101332.25;;;-1.21;100.00
57885;BME280;43703;51.060;-0.086;2024-01-10T08:13:53;101331.10;;;-1.20;100.00
57885;BME280;43703;51.060;-0.086;2024-01-10T08:16:19;101334.05;;;-1.11;100.00
57885;BME280;43703;51.060;-0.086;2024-01-10T08:18:44;101337.34;;;-1.38;100.00
57885;BME280;43703;51.060;-0.086;2024-01-10T08:21:10;101337.83;;;-1.37;100.00
57885;BME280;43703;51.060;-0.086;2024-01-10T08:23:35;101334.65;;;-1.11;100.00
57885;BME280;43703;51.060;-0.086;2024-01-10T08:26:00;101327.47;;;-1.29;100.00
57885;BME280;43703;51.060;-0.086;2024-01-10T08:28:25;101339.38;;;-1.05;100.00
57885;BME280;43703;51.060;-0.086;2024-01-10T08:30:51;101337.68;;;-0.99;100.00
57885;BME280;43703;51.060;-0.086;2024-01-10T08:33:16;101337.68;;;-0.96;100.00
57885;BME280;43703;51.060;-0.086;2024-01-10T08:35:41;101336.32;;;-0.86;100.00
57885;BME280;43703;51.060;-0.086;2024-01-10T08:38:07;101336.10;;;-1.03;100.00
57885;BME280;43703;51.060;-0.086;2024-01-10T08:40:32;101333.74;;;-0.95;100.00
57885;BME280;43703;51.060;-0.086;2024-01-10T08:42:58;101333.14;;;-0.90;100.00
57885;BME280;43703;51.060;-0.086;2024-01-10T08:45:23;101328.64;;;-0.80;100.00
57885;BME280;43703;51.060;-0.086;2024-01-10T08:47:48;101327.05;;;-0.80;100.00
57885;BME280;43703;51.060;-0.086;2024-01-10T08:50:14;101332.15;;;-0.74;100.00
57885;BME280;43703;51.060;-0.086;2024-01-10T08:52:39;101332.70;;;-0.42;100.00
57885;BME280;43703;51.060;-0.086;2024-01-10T08:55:06;101331.10;;;-0.49;100.00
57885;BME280;43703;51.060;-0.086;2024-01-10T08:57:31;101333.30;;;-0.57;100.00
57885;BME280;43703;51.060;-0.086;2024-01-10T08:59:55;101334.78;;;-0.49;100.00
57885;BME280;43703;51.060;-0.086;2024-01-10T09:02:21;101336.41;;;-0.39;100.00
57885;BME280;43703;51.060;-0.086;2024-01-10T09:04:45;101332.95;;;-0.37;100.00
57885;BME280;43703;51.060;-0.086;2024-01-10T09:07:11;101334.47;;;-0.21;100.00
57885;BME280;43703;51.060;-0.086;2024-01-10T09:09:36;101330.91;;;-0.76;100.00
57885;BME280;43703;51.060;-0.086;2024-01-10T09:12:02;101329.89;;;-0.01;100.00
57885;BME280;43703;51.060;-0.086;2024-01-10T09:14:27;101327.03;;;0.01;100.00
57885;BME280;43703;51.060;-0.086;2024-01-10T09:16:52;101327.04;;;-0.05;100.00
57885;BME280;43703;51.060;-0.086;2024-01-10T09:19:17;101325.94;;;0.35;100.00
57885;BME280;43703;51.060;-0.086;2024-01-10T09:21:43;101325.83;;;0.68;100.00
57885;BME280;43703;51.060;-0.086;2024-01-10T09:24:07;101329.04;;;0.99;100.00
57885;BME280;43703;51.060;-0.086;2024-01-10T09:26:32;101331.69;;;1.58;100.00
57885;BME280;43703;51.060;-0.086;2024-01-10T09:28:57;101335.20;;;2.03;100.00
57885;BME280;43703;51.060;-0.086;2024-01-10T09:31:22;101337.65;;;2.94;100.00
57885;BME280;43703;51.060;-0.086;2024-01-10T09:33:47;101339.75;;;3.36;100.00
57885;BME280;43703;51.060;-0.086;2024-01-10T09:36:12;101339.83;;;3.76;100.00
57885;BME280;43703;51.060;-0.086;2024-01-10T09:38:40;101340.11;;;4.50;100.00
57885;BME280;43703;51.060;-0.086;2024-01-10T09:41:07;101349.21;;;5.21;100.00
57885;BME280;43703;51.060;-0.086;2024-01-10T09:43:32;101344.81;;;5.70;100.00
57885;BME280;43703;51.060;-0.086;2024-01-10T09:45:55;101346.48;;;6.13;100.00
57885;BME280;43703;51.060;-0.086;2024-01-10T09:48:20;101350.72;;;6.74;100.00
57885;BME280;43703;51.060;-0.086;2024-01-10T09:50:46;101352.67;;;7.06;100.00
57885;BME280;43703;51.060;-0.086;2024-01-10T09:53:16;101354.20;;;7.07;100.00
57885;BME280;43703;51.060;-0.086;2024-01-10T09:55:37;101357.38;;;6.53;100.00
57885;BME280;43703;51.060;-0.086;2024-01-10T09:58:02;101355.95;;;6.79;100.00
57885;BME280;43703;51.060;-0.086;2024-01-10T10:00:27;101360.32;;;6.39;100.00
57885;BME280;43703;51.060;-0.086;2024-01-10T10:02:54;101352.88;;;6.69;100.00
57885;BME280;43703;51.060;-0.086;2024-01-10T10:05:18;101352.58;;;6.28;100.00
57885;BME280;43703;51.060;-0.086;2024-01-10T10:07:45;101354.20;;;6.17;100.00
57885;BME280;43703;51.060;-0.086;2024-01-10T10:10:10;101360.29;;;5.69;100.00
57885;BME280;43703;51.060;-0.086;2024-01-10T10:12:44;101357.07;;;5.23;100.00
57885;BME280;43703;51.060;-0.086;2024-01-10T10:15:11;101359.49;;;4.64;100.00
57885;BME280;43703;51.060;-0.086;2024-01-10T10:17:29;101357.74;;;4.02;100.00
57885;BME280;43703;51.060;-0.086;2024-01-10T10:20:02;101360.17;;;4.15;100.00
57885;BME280;43703;51.060;-0.086;2024-01-10T10:22:19;101362.48;;;3.58;100.00
57885;BME280;43703;51.060;-0.086;2024-01-10T10:24:49;101363.33;;;3.58;100.00
57885;BME280;43703;51.060;-0.086;2024-01-10T10:27:18;101360.20;;;3.30;100.00
57885;BME280;43703;51.060;-0.086;2024-01-10T10:29:36;101360.83;;;2.91;100.00
57885;BME280;43703;51.060;-0.086;2024-01-10T10:31:58;101361.80;;;3.15;100.00
57885;BME280;43703;51.060;-0.086;2024-01-10T10:34:24;101354.01;;;3.20;100.00
57885;BME280;43703;51.060;-0.086;2024-01-10T10:36:48;101358.42;;;3.13;100.00
57885;BME280;43703;51.060;-0.086;2024-01-10T10:39:16;101351.94;;;3.37;100.00
57885;BME280;43703;51.060;-0.086;2024-01-10T10:41:41;101350.43;;;3.72;100.00
57885;BME280;43703;51.060;-0.086;2024-01-10T10:44:06;101351.02;;;3.65;96.82
57885;BME280;43703;51.060;-0.086;2024-01-10T10:46:30;101344.56;;;3.86;100.00
57885;BME280;43703;51.060;-0.086;2024-01-10T10:48:59;101343.64;;;3.52;100.00
57885;BME280;43703;51.060;-0.086;2024-01-10T10:51:28;101341.00;;;3.52;100.00
57885;BME280;43703;51.060;-0.086;2024-01-10T10:53:47;101335.76;;;3.52;100.00
57885;BME280;43703;51.060;-0.086;2024-01-10T10:58:42;101331.55;;;3.56;96.78
57885;BME280;43703;51.060;-0.086;2024-01-10T11:01:05;101332.84;;;3.64;99.51
57885;BME280;43703;51.060;-0.086;2024-01-10T11:03:28;101325.41;;;3.52;97.92
57885;BME280;43703;51.060;-0.086;2024-01-10T11:05:53;101329.23;;;3.52;100.00
57885;BME280;43703;51.060;-0.086;2024-01-10T11:08:19;101328.17;;;3.31;100.00
57885;BME280;43703;51.060;-0.086;2024-01-10T11:10:45;101318.87;;;3.63;100.00
57885;BME280;43703;51.060;-0.086;2024-01-10T11:13:26;101318.03;;;3.50;89.33
57885;BME280;43703;51.060;-0.086;2024-01-10T11:15:46;101318.32;;;3.30;100.00
57885;BME280;43703;51.060;-0.086;2024-01-10T11:18:08;101317.72;;;3.62;98.73
57885;BME280;43703;51.060;-0.086;2024-01-10T11:20:41;101319.63;;;3.56;100.00
57885;BME280;43703;51.060;-0.086;2024-01-10T11:25:15;101321.37;;;3.97;100.00
57885;BME280;43703;51.060;-0.086;2024-01-10T11:27:40;101316.93;;;3.72;100.00
57885;BME280;43703;51.060;-0.086;2024-01-10T11:30:06;101319.02;;;3.60;100.00
57885;BME280;43703;51.060;-0.086;2024-01-10T11:32:32;101317.05;;;3.80;100.00
57885;BME280;43703;51.060;-0.086;2024-01-10T11:34:57;101313.57;;;3.90;87.61
57885;BME280;43703;51.060;-0.086;2024-01-10T11:37:21;101312.35;;;3.76;100.00
57885;BME280;43703;51.060;-0.086;2024-01-10T11:39:46;101309.99;;;4.06;100.00
57885;BME280;43703;51.060;-0.086;2024-01-10T11:42:11;101305.87;;;3.85;100.00
57885;BME280;43703;51.060;-0.086;2024-01-10T11:47:04;101300.75;;;4.02;100.00
57885;BME280;43703;51.060;-0.086;2024-01-10T11:49:28;101297.60;;;4.36;95.43
57885;BME280;43703;51.060;-0.086;2024-01-10T11:51:59;101295.90;;;4.09;100.00
57885;BME280;43703;51.060;-0.086;2024-01-10T11:56:44;101289.90;;;4.63;98.32
57885;BME280;43703;51.060;-0.086;2024-01-10T11:59:10;101279.50;;;4.48;97.57
57885;BME280;43703;51.060;-0.086;2024-01-10T12:01:36;101277.56;;;4.61;100.00
57885;BME280;43703;51.060;-0.086;2024-01-10T12:04:00;101273.60;;;4.96;100.00
57885;BME280;43703;51.060;-0.086;2024-01-10T12:06:26;101267.18;;;5.29;100.00
57885;BME280;43703;51.060;-0.086;2024-01-10T12:08:52;101261.35;;;5.42;100.00
57885;BME280;43703;51.060;-0.086;2024-01-10T12:11:18;101262.36;;;5.52;94.90
57885;BME280;43703;51.060;-0.086;2024-01-10T12:13:44;101261.10;;;5.76;87.67
57885;BME280;43703;51.060;-0.086;2024-01-10T12:16:12;101253.59;;;6.00;87.99
57885;BME280;43703;51.060;-0.086;2024-01-10T12:18:35;101254.11;;;6.10;78.77
57885;BME280;43703;51.060;-0.086;2024-01-10T12:21:01;101253.40;;;6.26;91.73
57885;BME280;43703;51.060;-0.086;2024-01-10T12:23:26;101249.19;;;7.22;100.00
57885;BME280;43703;51.060;-0.086;2024-01-10T12:25:52;101243.22;;;7.51;99.97
57885;BME280;43703;51.060;-0.086;2024-01-10T12:28:18;101238.71;;;8.08;100.00
57885;BME280;43703;51.060;-0.086;2024-01-10T12:30:44;101238.70;;;8.29;91.97
57885;BME280;43703;51.060;-0.086;2024-01-10T12:33:09;101230.20;;;8.52;68.00
57885;BME280;43703;51.060;-0.086;2024-01-10T12:35:35;101224.23;;;7.86;56.83